createdAt,value
2018-05-09T00:02:10.123Z,55.66
2018-05-09T00:04:38.438Z,55.84
2018-05-09T00:07:07.288Z,55.77
2018-05-09T00:09:35.608Z,55.90
2018-05-09T00:12:03.968Z,56.13
2018-05-09T00:14:32.413Z,56.09
2018-05-09T00:17:00.777Z,56.21
2018-05-09T00:19:29.133Z,56.05
2018-05-09T00:21:58.856Z,56.15
2018-05-09T00:24:27.173Z,56.24
2018-05-09T00:26:55.510Z,56.05
2018-05-09T00:29:23.929Z,56.17
2018-05-09T00:31:52.243Z,56.79
2018-05-09T00:34:20.570Z,56.44
2018-05-09T00:36:48.910Z,56.34
2018-05-09T00:39:17.216Z,56.55
2018-05-09T00:41:45.727Z,56.36
2018-05-09T00:44:14.390Z,56.55
2018-05-09T00:46:42.707Z,56.69
2018-05-09T00:49:10.998Z,56.71
2018-05-09T00:51:40.215Z,56.71
2018-05-09T00:54:20.421Z,56.61
2018-05-09T00:56:49.669Z,56.77
2018-05-09T00:59:17.978Z,57.20
2018-05-09T01:01:46.289Z,57.06
2018-05-09T01:04:15.005Z,57.21
2018-05-09T01:06:43.317Z,57.24
2018-05-09T01:09:11.602Z,57.33
2018-05-09T01:11:40.553Z,57.44
2018-05-09T01:14:08.876Z,57.80
2018-05-09T01:16:37.190Z,57.56
2018-05-09T01:19:06.139Z,57.81
2018-05-09T01:21:34.445Z,57.81
2018-05-09T01:24:02.818Z,57.66
2018-05-09T01:26:32.448Z,57.62
2018-05-09T01:29:00.815Z,57.41
2018-05-09T01:31:29.145Z,57.50
2018-05-09T01:33:57.994Z,57.55
2018-05-09T01:36:26.427Z,57.57
2018-05-09T01:38:54.761Z,57.79
2018-05-09T01:41:25.168Z,58.03
2018-05-09T01:43:55.569Z,57.90
2018-05-09T01:46:24.038Z,58.19
2018-05-09T01:48:52.414Z,58.23
2018-05-09T01:51:21.450Z,58.23
2018-05-09T01:53:49.941Z,58.36
2018-05-09T01:56:18.418Z,58.40
2018-05-09T01:58:46.725Z,58.41
2018-05-09T02:01:15.031Z,58.65
2018-05-09T02:03:43.610Z,58.87
2018-05-09T02:06:12.101Z,59.33
2018-05-09T02:08:40.366Z,59.34
2018-05-09T02:11:09.353Z,59.38
2018-05-09T02:13:37.648Z,59.80
2018-05-09T02:16:05.949Z,59.68
2018-05-09T02:18:34.393Z,59.84
2018-05-09T02:21:02.725Z,60.02
2018-05-09T02:23:31.041Z,60.42
2018-05-09T02:26:00.205Z,60.48
2018-05-09T02:28:28.543Z,60.25
2018-05-09T02:30:56.856Z,60.39
2018-05-09T02:33:25.916Z,60.53
2018-05-09T02:35:54.355Z,60.48
2018-05-09T02:38:22.677Z,60.37
2018-05-09T02:40:51.624Z,60.42
2018-05-09T02:43:19.923Z,60.65
2018-05-09T02:45:48.298Z,60.74
2018-05-09T02:48:16.650Z,61.02
2018-05-09T02:50:44.959Z,60.92
2018-05-09T02:53:13.305Z,61.02
2018-05-09T02:55:42.005Z,61.19
2018-05-09T02:58:10.290Z,61.17
2018-05-09T03:00:38.589Z,61.17
2018-05-09T03:03:07.304Z,61.23
2018-05-09T03:05:35.629Z,61.32
2018-05-09T03:08:03.936Z,61.28
2018-05-09T03:10:32.567Z,61.42
2018-05-09T03:13:00.904Z,61.39
2018-05-09T03:15:29.209Z,61.31
2018-05-09T03:17:57.629Z,61.35
2018-05-09T03:20:25.942Z,61.35
2018-05-09T03:22:54.386Z,61.19
2018-05-09T03:25:23.095Z,61.14
2018-05-09T03:27:51.418Z,61.24
2018-05-09T03:30:19.733Z,61.27
2018-05-09T03:32:48.878Z,61.18
2018-05-09T03:35:17.168Z,61.12
2018-05-09T03:37:45.645Z,61.21
2018-05-09T03:40:15.722Z,61.25
2018-05-09T03:42:44.036Z,61.06
2018-05-09T03:45:12.357Z,60.99
2018-05-09T03:47:41.108Z,61.09
2018-05-09T03:50:09.408Z,60.71
2018-05-09T03:52:37.737Z,60.65
2018-05-09T03:55:06.072Z,60.74
2018-05-09T03:57:34.431Z,60.74
2018-05-09T04:00:02.742Z,60.74
2018-05-09T04:02:45.501Z,60.66
2018-05-09T04:05:25.686Z,60.85
2018-05-09T04:08:07.485Z,60.79
2018-05-09T04:10:35.839Z,60.75
2018-05-09T04:13:04.219Z,60.46
2018-05-09T04:15:32.946Z,60.60
2018-05-09T04:18:01.289Z,60.54
2018-05-09T04:20:29.626Z,60.17
2018-05-09T04:22:58.128Z,59.97
2018-05-09T04:25:26.451Z,60.08
2018-05-09T04:27:54.782Z,59.85
2018-05-09T04:30:23.392Z,59.94
2018-05-09T04:32:51.711Z,59.41
2018-05-09T04:35:20.042Z,59.40
2018-05-09T04:37:49.131Z,59.19
2018-05-09T04:40:17.416Z,59.32
2018-05-09T04:42:45.735Z,59.17
2018-05-09T04:45:14.053Z,59.26
2018-05-09T04:47:43.310Z,59.06
2018-05-09T04:50:11.613Z,58.88
2018-05-09T04:52:39.959Z,58.75
2018-05-09T04:55:08.255Z,58.84
2018-05-09T04:57:36.841Z,58.57
2018-05-09T05:00:05.652Z,58.62
2018-05-09T05:02:33.988Z,58.30
2018-05-09T05:05:02.292Z,58.33
2018-05-09T05:07:30.761Z,57.97
2018-05-09T05:09:59.086Z,58.23
2018-05-09T05:12:27.416Z,57.88
2018-05-09T05:14:56.665Z,57.36
2018-05-09T05:17:25.027Z,57.52
2018-05-09T05:19:54.365Z,57.23
2018-05-09T05:22:22.694Z,57.35
2018-05-09T05:24:51.185Z,56.88
2018-05-09T05:27:19.523Z,56.60
2018-05-09T05:29:48.343Z,56.10
2018-05-09T05:32:16.655Z,55.93
2018-05-09T05:34:44.969Z,55.44
2018-05-09T05:37:14.086Z,55.07
2018-05-09T05:39:42.411Z,54.86
2018-05-09T05:42:10.734Z,54.47
2018-05-09T05:44:39.102Z,54.59
2018-05-09T05:47:07.445Z,54.20
2018-05-09T05:49:37.065Z,53.92
2018-05-09T05:52:05.383Z,54.08
2018-05-09T05:54:33.694Z,53.32
2018-05-09T05:57:02.009Z,53.38
2018-05-09T05:59:30.966Z,53.33
2018-05-09T06:01:59.450Z,52.24
2018-05-09T06:04:27.930Z,52.27
2018-05-09T06:06:56.786Z,51.73
2018-05-09T06:09:25.117Z,50.96
2018-05-09T06:11:53.579Z,50.38
2018-05-09T06:14:22.021Z,49.65
2018-05-09T06:16:50.326Z,49.09
2018-05-09T06:19:18.665Z,49.22
2018-05-09T06:21:46.988Z,49.18
2018-05-09T06:24:15.627Z,48.76
2018-05-09T06:26:43.992Z,48.33
2018-05-09T06:29:12.487Z,47.73
2018-05-09T06:31:40.851Z,47.25
2018-05-09T06:34:09.244Z,47.13
2018-05-09T06:36:37.950Z,47.16
2018-05-09T06:39:06.249Z,46.94
2018-05-09T06:41:34.612Z,46.55
2018-05-09T06:44:03.846Z,46.20
2018-05-09T06:46:32.174Z,45.53
2018-05-09T06:49:01.167Z,45.57
2018-05-09T06:51:29.561Z,44.85
2018-05-09T06:53:57.949Z,44.97
2018-05-09T06:56:26.433Z,44.50
2018-05-09T06:58:54.984Z,44.23
2018-05-09T07:01:23.308Z,44.19
2018-05-09T07:03:51.612Z,44.02
2018-05-09T07:06:21.169Z,43.33
2018-05-09T07:08:49.411Z,42.67
2018-05-09T07:11:17.745Z,43.24
2018-05-09T07:13:46.801Z,42.70
2018-05-09T07:16:15.101Z,42.22
2018-05-09T07:18:43.455Z,42.26
2018-05-09T07:21:12.469Z,42.17
2018-05-09T07:23:40.767Z,41.39
2018-05-09T07:26:09.107Z,40.78
2018-05-09T07:28:37.519Z,41.13
2018-05-09T07:31:05.834Z,41.06
2018-05-09T07:33:34.145Z,40.54
2018-05-09T07:36:02.562Z,39.97
2018-05-09T07:38:30.864Z,40.44
2018-05-09T07:40:59.315Z,40.35
2018-05-09T07:43:27.698Z,39.04
2018-05-09T07:45:56.190Z,39.02
2018-05-09T07:48:24.669Z,38.92
2018-05-09T07:50:55.005Z,39.29
2018-05-09T07:53:23.363Z,39.19
2018-05-09T07:55:51.696Z,39.17
2018-05-09T07:58:20.085Z,38.91
2018-05-09T08:00:48.386Z,38.32
2018-05-09T08:03:16.718Z,38.12
2018-05-09T08:05:45.074Z,37.97
2018-05-09T08:08:13.375Z,37.30
2018-05-09T08:10:41.697Z,36.84
2018-05-09T08:13:10.049Z,37.21
2018-05-09T08:15:38.353Z,37.19
2018-05-09T08:18:06.666Z,37.04
2018-05-09T08:20:35.420Z,36.90
2018-05-09T08:23:03.799Z,36.62
2018-05-09T08:25:32.175Z,36.94
2018-05-09T08:28:01.281Z,36.99
2018-05-09T08:30:29.722Z,36.53
2018-05-09T08:32:58.016Z,36.21
2018-05-09T08:35:27.010Z,35.97
2018-05-09T08:37:55.513Z,36.73
2018-05-09T08:40:24.006Z,36.17
2018-05-09T08:42:52.884Z,36.28
2018-05-09T08:45:21.165Z,35.53
2018-05-09T08:47:49.506Z,35.84
2018-05-09T08:50:18.497Z,35.94
2018-05-09T08:52:46.812Z,35.06
2018-05-09T08:55:15.199Z,34.75
2018-05-09T08:57:43.540Z,34.63
2018-05-09T09:00:11.850Z,34.83
2018-05-09T09:02:40.157Z,34.81
2018-05-09T09:05:08.551Z,34.39
2018-05-09T09:07:36.881Z,34.82
2018-05-09T09:10:05.273Z,34.14
2018-05-09T09:12:34.368Z,32.91
2018-05-09T09:15:02.689Z,34.02
2018-05-09T09:17:32.034Z,33.41
2018-05-09T09:20:00.512Z,33.45
2018-05-09T09:22:29.150Z,33.15
2018-05-09T09:24:57.672Z,33.14
2018-05-09T09:27:26.521Z,32.49
2018-05-09T09:29:54.944Z,31.68
2018-05-09T09:32:23.320Z,30.17
2018-05-09T09:34:51.751Z,29.62
2018-05-09T09:37:20.857Z,29.44
2018-05-09T09:39:49.178Z,28.33
2018-05-09T09:42:17.603Z,27.69
2018-05-09T09:44:45.938Z,27.43
2018-05-09T09:47:14.233Z,27.52
2018-05-09T09:49:43.200Z,27.12
2018-05-09T09:52:11.802Z,26.43
2018-05-09T09:54:40.170Z,26.59
2018-05-09T09:57:08.514Z,26.03
2018-05-09T09:59:36.855Z,26.41
2018-05-09T10:02:05.194Z,26.75
2018-05-09T10:04:33.581Z,26.27
2018-05-09T10:07:01.950Z,24.89
2018-05-09T10:09:30.334Z,24.12
2018-05-09T10:11:59.127Z,25.03
2018-05-09T10:14:27.519Z,23.75
2018-05-09T10:16:56.015Z,24.30
2018-05-09T10:19:25.755Z,23.97
2018-05-09T10:21:54.175Z,24.52
2018-05-09T10:24:22.665Z,23.05
2018-05-09T10:26:53.092Z,23.02
2018-05-09T10:29:21.390Z,23.01
2018-05-09T10:31:49.715Z,23.30
2018-05-09T10:34:19.071Z,22.97
2018-05-09T10:36:47.411Z,23.90
2018-05-09T10:39:15.737Z,23.58
2018-05-09T10:41:44.257Z,23.71
2018-05-09T10:44:12.552Z,23.66
2018-05-09T10:46:40.860Z,23.70
2018-05-09T10:49:09.425Z,24.11
2018-05-09T10:51:37.746Z,24.98
2018-05-09T10:54:06.066Z,24.77
2018-05-09T10:56:34.402Z,23.63
2018-05-09T10:59:02.756Z,24.34
2018-05-09T11:01:31.109Z,24.08
2018-05-09T11:03:59.537Z,23.94
2018-05-09T11:06:28.092Z,23.56
2018-05-09T11:08:56.425Z,24.22
2018-05-09T11:11:24.776Z,23.99
2018-05-09T11:13:53.180Z,24.14
2018-05-09T11:16:21.520Z,24.26
2018-05-09T11:18:50.230Z,24.23
2018-05-09T11:21:18.541Z,24.56
2018-05-09T11:23:46.849Z,24.51
2018-05-09T11:26:15.848Z,24.38
2018-05-09T11:28:44.138Z,25.23
2018-05-09T11:31:12.475Z,25.83
2018-05-09T11:33:40.809Z,25.35
2018-05-09T11:36:09.127Z,25.44
2018-05-09T11:38:37.433Z,25.78
2018-05-09T11:41:06.588Z,25.54
2018-05-09T11:43:34.946Z,25.10
2018-05-09T11:46:03.287Z,25.17
2018-05-09T11:48:31.951Z,25.53
2018-05-09T11:51:00.292Z,25.87
2018-05-09T11:53:28.681Z,25.97
2018-05-09T11:55:57.796Z,25.99
2018-05-09T11:58:26.359Z,25.73
2018-05-09T12:00:54.702Z,25.62
2018-05-09T12:03:23.277Z,25.34
2018-05-09T12:05:51.585Z,25.51
2018-05-09T12:08:19.901Z,24.88
2018-05-09T12:10:48.325Z,24.76
2018-05-09T12:13:16.541Z,24.75
2018-05-09T12:15:44.849Z,24.70
2018-05-09T12:18:14.006Z,25.21
2018-05-09T12:20:42.324Z,25.17
2018-05-09T12:23:10.624Z,25.10
2018-05-09T12:25:38.977Z,25.05
2018-05-09T12:28:07.312Z,25.42
2018-05-09T12:30:35.617Z,25.28
2018-05-09T12:33:04.060Z,25.22
2018-05-09T12:35:32.409Z,25.28
2018-05-09T12:38:00.764Z,25.20
2018-05-09T12:40:29.450Z,25.04
2018-05-09T12:42:57.783Z,25.16
2018-05-09T12:45:26.102Z,24.73
2018-05-09T12:47:54.538Z,24.28
2018-05-09T12:50:22.862Z,24.14
2018-05-09T12:52:51.242Z,24.14
2018-05-09T12:55:19.570Z,24.21
2018-05-09T12:57:47.896Z,24.21
2018-05-09T13:00:16.314Z,24.22
2018-05-09T13:02:44.630Z,24.48
2018-05-09T13:05:13.206Z,24.58
2018-05-09T13:07:41.549Z,24.96
2018-05-09T13:10:10.772Z,25.61
2018-05-09T13:12:39.095Z,25.14
2018-05-09T13:15:07.387Z,25.14
2018-05-09T13:17:36.553Z,25.26
2018-05-09T13:20:04.924Z,25.50
2018-05-09T13:22:33.231Z,25.74
2018-05-09T13:25:02.133Z,25.86
2018-05-09T13:27:30.560Z,26.01
2018-05-09T13:29:58.856Z,25.84
2018-05-09T13:32:27.204Z,25.64
2018-05-09T13:34:55.726Z,26.22
2018-05-09T13:37:24.076Z,27.00
2018-05-09T13:39:52.683Z,28.57
2018-05-09T13:42:21.013Z,28.92
2018-05-09T13:44:49.311Z,29.83
2018-05-09T13:47:17.995Z,28.63
2018-05-09T13:49:46.316Z,29.53
2018-05-09T13:52:14.620Z,29.15
2018-05-09T13:54:42.965Z,30.33
2018-05-09T13:57:11.302Z,31.16
2018-05-09T13:59:39.628Z,31.06
2018-05-09T14:02:08.855Z,30.28
2018-05-09T14:04:37.191Z,29.23
2018-05-09T14:07:05.505Z,29.51
2018-05-09T14:09:33.838Z,30.74
2018-05-09T14:12:02.149Z,30.61
2018-05-09T14:14:30.577Z,31.74
2018-05-09T14:16:58.905Z,31.53
2018-05-09T14:19:27.329Z,32.11
2018-05-09T14:21:55.683Z,33.12
2018-05-09T14:24:24.258Z,32.93
2018-05-09T14:26:52.559Z,32.54
2018-05-09T14:29:20.912Z,32.19
2018-05-09T14:31:49.251Z,31.53
2018-05-09T14:34:18.402Z,32.47
2018-05-09T14:36:46.732Z,31.30
2018-05-09T14:39:15.185Z,30.84
2018-05-09T14:41:43.494Z,30.71
2018-05-09T14:44:11.795Z,30.57
2018-05-09T14:46:40.181Z,31.20
2018-05-09T14:49:08.462Z,31.55
2018-05-09T14:51:36.773Z,31.78
2018-05-09T14:54:05.350Z,32.58
2018-05-09T14:56:33.675Z,32.14
2018-05-09T14:59:01.986Z,32.39
2018-05-09T15:01:30.908Z,33.38
2018-05-09T15:03:59.267Z,32.50
2018-05-09T15:06:27.580Z,32.58
2018-05-09T15:08:55.988Z,31.55
2018-05-09T15:11:24.316Z,31.00
2018-05-09T15:13:52.643Z,30.58
2018-05-09T15:16:22.346Z,30.68
2018-05-09T15:18:51.653Z,31.03
2018-05-09T15:21:20.633Z,32.30
2018-05-09T15:23:49.267Z,31.70
2018-05-09T15:26:17.610Z,32.44
2018-05-09T15:28:45.898Z,32.49
2018-05-09T15:31:14.221Z,31.58
2018-05-09T15:33:42.513Z,31.12
2018-05-09T15:36:10.823Z,31.95
2018-05-09T15:38:39.897Z,32.08
2018-05-09T15:41:08.218Z,32.23
2018-05-09T15:43:36.546Z,32.39
2018-05-09T15:46:05.288Z,33.80
2018-05-09T15:48:33.600Z,32.70
2018-05-09T15:51:01.933Z,32.22
2018-05-09T15:53:30.275Z,32.46
2018-05-09T15:56:01.754Z,33.00
2018-05-09T15:58:30.064Z,33.05
2018-05-09T16:00:58.448Z,33.85
2018-05-09T16:03:26.846Z,33.48
2018-05-09T16:05:55.217Z,35.69
2018-05-09T16:08:24.157Z,36.61
2018-05-09T16:10:52.579Z,37.65
2018-05-09T16:13:22.033Z,38.37
2018-05-09T16:15:53.254Z,38.70
2018-05-09T16:18:21.563Z,39.60
2018-05-09T16:20:49.850Z,40.43
2018-05-09T16:23:18.219Z,40.38
2018-05-09T16:25:46.525Z,40.58
2018-05-09T16:28:14.885Z,40.64
2018-05-09T16:30:43.207Z,40.79
2018-05-09T16:33:11.526Z,41.20
2018-05-09T16:35:39.838Z,41.52
2018-05-09T16:38:08.734Z,41.66
2018-05-09T16:40:37.028Z,41.76
2018-05-09T16:43:05.470Z,42.34
2018-05-09T16:45:35.677Z,42.00
2018-05-09T16:48:05.097Z,41.64
2018-05-09T16:50:33.383Z,42.16
2018-05-09T16:53:02.390Z,42.46
2018-05-09T16:55:30.773Z,42.68
2018-05-09T16:58:00.948Z,42.83
2018-05-09T17:00:29.598Z,43.11
2018-05-09T17:02:57.933Z,42.97
2018-05-09T17:05:26.313Z,43.13
2018-05-09T17:07:54.655Z,42.73
2018-05-09T17:10:22.989Z,42.88
2018-05-09T17:12:51.283Z,42.48
2018-05-09T17:15:20.508Z,42.51
2018-05-09T17:17:48.835Z,43.41
2018-05-09T17:20:17.149Z,43.12
2018-05-09T17:22:45.638Z,43.67
2018-05-09T17:25:13.969Z,43.68
2018-05-09T17:27:42.262Z,43.60
2018-05-09T17:30:10.707Z,43.44
2018-05-09T17:32:39.050Z,43.24
2018-05-09T17:35:07.365Z,43.58
2018-05-09T17:37:36.069Z,43.80
2018-05-09T17:40:04.363Z,44.12
2018-05-09T17:42:32.804Z,44.26
2018-05-09T17:45:01.830Z,44.43
2018-05-09T17:47:30.547Z,44.71
2018-05-09T17:49:58.913Z,44.90
2018-05-09T17:52:27.309Z,44.87
2018-05-09T17:54:55.739Z,45.02
2018-05-09T17:57:24.123Z,44.61
2018-05-09T17:59:52.489Z,43.63
2018-05-09T18:02:20.866Z,43.09
2018-05-09T18:04:49.249Z,42.69
2018-05-09T18:07:18.339Z,42.72
2018-05-09T18:09:46.624Z,42.61
2018-05-09T18:12:15.001Z,42.62
2018-05-09T18:14:43.364Z,43.06
2018-05-09T18:17:11.650Z,43.37
2018-05-09T18:19:39.988Z,43.70
2018-05-09T18:22:08.926Z,44.50
2018-05-09T18:24:37.419Z,44.67
2018-05-09T18:27:05.765Z,45.20
2018-05-09T18:29:34.276Z,45.83
2018-05-09T18:32:02.566Z,45.87
2018-05-09T18:34:30.928Z,46.59
2018-05-09T18:36:59.711Z,46.47
2018-05-09T18:39:28.182Z,47.43
2018-05-09T18:41:56.566Z,47.72
2018-05-09T18:44:25.068Z,47.87
2018-05-09T18:46:53.434Z,48.38
2018-05-09T18:49:21.722Z,48.50
2018-05-09T18:51:50.082Z,48.50
2018-05-09T18:54:18.422Z,48.75
2018-05-09T18:56:46.742Z,48.88
2018-05-09T18:59:15.254Z,49.10
2018-05-09T19:01:43.565Z,49.29
2018-05-09T19:04:11.897Z,49.33
2018-05-09T19:06:40.301Z,49.77
2018-05-09T19:09:08.682Z,49.60
2018-05-09T19:11:37.046Z,50.01
2018-05-09T19:14:05.402Z,50.24
2018-05-09T19:16:33.737Z,50.14
2018-05-09T19:19:02.496Z,50.44
2018-05-09T19:21:30.856Z,50.61
2018-05-09T19:24:00.032Z,50.41
2018-05-09T19:26:28.374Z,51.00
2018-05-09T19:28:56.842Z,50.90
2018-05-09T19:31:25.188Z,50.97
2018-05-09T19:33:54.820Z,50.64
2018-05-09T19:36:23.880Z,50.75
2018-05-09T19:38:52.172Z,50.83
2018-05-09T19:41:20.491Z,50.63
2018-05-09T19:43:49.253Z,50.97
2018-05-09T19:46:17.609Z,51.26
2018-05-09T19:48:45.935Z,50.76
2018-05-09T19:51:14.693Z,50.91
2018-05-09T19:53:43.017Z,50.72
2018-05-09T19:56:11.425Z,50.73
2018-05-09T19:58:40.315Z,50.99
2018-05-09T20:01:08.660Z,50.96
2018-05-09T20:03:37.304Z,51.19
2018-05-09T20:06:05.725Z,51.33
2018-05-09T20:08:34.373Z,51.56
2018-05-09T20:11:02.972Z,51.91
2018-05-09T20:13:31.768Z,51.81
2018-05-09T20:16:00.233Z,52.11
2018-05-09T20:18:29.331Z,52.19
2018-05-09T20:20:57.813Z,52.19
2018-05-09T20:23:26.195Z,52.37
2018-05-09T20:25:54.577Z,52.67
2018-05-09T20:28:24.256Z,52.70
2018-05-09T20:30:58.216Z,52.66
2018-05-09T20:33:28.769Z,52.88
2018-05-09T20:35:57.302Z,52.90
2018-05-09T20:38:25.775Z,53.12
2018-05-09T20:40:55.123Z,53.28
2018-05-09T20:43:23.666Z,53.53
2018-05-09T20:45:51.966Z,53.87
2018-05-09T20:48:21.161Z,53.56
2018-05-09T20:50:49.500Z,53.60
2018-05-09T20:53:17.934Z,53.94
2018-05-09T20:55:46.392Z,53.92
2018-05-09T20:58:14.849Z,54.02
2018-05-09T21:00:43.166Z,54.13
2018-05-09T21:03:12.027Z,54.30
2018-05-09T21:05:40.411Z,54.85
2018-05-09T21:08:08.830Z,54.67
2018-05-09T21:10:38.882Z,54.84
2018-05-09T21:13:07.200Z,55.10
2018-05-09T21:15:35.817Z,54.99
2018-05-09T21:18:04.365Z,55.06
2018-05-09T21:20:32.716Z,55.14
2018-05-09T21:23:01.153Z,55.25
2018-05-09T21:25:29.502Z,55.13
2018-05-09T21:27:57.873Z,55.14
2018-05-09T21:30:26.286Z,55.77
2018-05-09T21:32:55.574Z,55.83
2018-05-09T21:35:23.949Z,55.78
2018-05-09T21:37:53.932Z,55.70
2018-05-09T21:40:24.305Z,55.70
2018-05-09T21:42:52.637Z,56.08
2018-05-09T21:45:21.019Z,56.00
2018-05-09T21:47:50.103Z,55.92
2018-05-09T21:50:18.404Z,55.77
2018-05-09T21:52:46.705Z,56.00
2018-05-09T21:55:15.446Z,56.48
2018-05-09T21:57:43.849Z,56.29
2018-05-09T22:00:12.194Z,56.05
2018-05-09T22:02:42.165Z,56.18
2018-05-09T22:05:10.458Z,56.38
2018-05-09T22:07:38.855Z,56.64
2018-05-09T22:10:07.965Z,56.71
2018-05-09T22:12:36.265Z,57.12
2018-05-09T22:15:04.616Z,56.83
2018-05-09T22:17:33.267Z,57.10
2018-05-09T22:20:01.679Z,56.90
2018-05-09T22:22:30.180Z,57.04
2018-05-09T22:24:59.385Z,56.91
2018-05-09T22:27:27.775Z,56.86
2018-05-09T22:29:56.188Z,57.03
2018-05-09T22:32:25.328Z,57.05
2018-05-09T22:34:53.688Z,56.91
2018-05-09T22:37:22.020Z,57.01
2018-05-09T22:39:50.646Z,57.16
2018-05-09T22:42:18.953Z,57.04
2018-05-09T22:44:47.346Z,57.13
2018-05-09T22:47:16.275Z,56.96
2018-05-09T22:49:44.608Z,57.47
2018-05-09T22:52:12.922Z,57.30
2018-05-09T22:54:41.279Z,57.54
2018-05-09T22:57:09.597Z,57.22
2018-05-09T22:59:37.933Z,56.91
2018-05-09T23:02:06.565Z,56.86
2018-05-09T23:04:34.900Z,56.88
2018-05-09T23:07:03.223Z,56.93
2018-05-09T23:09:31.602Z,56.64
2018-05-09T23:11:59.958Z,56.54
2018-05-09T23:14:28.351Z,56.35
2018-05-09T23:16:56.738Z,55.82
2018-05-09T23:19:25.072Z,56.05
2018-05-09T23:21:53.955Z,55.81
2018-05-09T23:24:22.594Z,55.99
2018-05-09T23:26:51.016Z,56.16
2018-05-09T23:29:19.336Z,56.27
2018-05-09T23:31:47.720Z,56.33
2018-05-09T23:34:16.271Z,57.00
2018-05-09T23:36:44.560Z,57.28
2018-05-09T23:39:12.968Z,57.33
2018-05-09T23:41:41.279Z,57.85
2018-05-09T23:44:09.624Z,58.32
2018-05-09T23:46:38.006Z,58.35
2018-05-09T23:49:06.309Z,58.21
2018-05-09T23:51:34.689Z,58.37
2018-05-09T23:54:03.277Z,58.19
2018-05-09T23:56:31.636Z,58.22
2018-05-09T23:59:00.082Z,58.00
